sensor_id;sensor_type;location;lat;lon;timestamp;temperature;humidity
18229;DHT22;9239;50.932;3.142;2023-12-20T00:01:04;6.50;99.90
18229;DHT22;9239;50.932;3.142;2023-12-20T00:03:31;6.60;99.90
18229;DHT22;9239;50.932;3.142;2023-12-20T00:05:58;6.60;99.90
18229;DHT22;9239;50.932;3.142;2023-12-20T00:08:25;6.60;99.90
18229;DHT22;9239;50.932;3.142;2023-12-20T00:10:52;6.60;99.90
18229;DHT22;9239;50.932;3.142;2023-12-20T00:13:19;6.60;99.90
18229;DHT22;9239;50.932;3.142;2023-12-20T00:15:48;6.70;99.90
18229;DHT22;9239;50.932;3.142;2023-12-20T00:18:15;6.60;99.90
18229;DHT22;9239;50.932;3.142;2023-12-20T00:20:42;6.60;99.90
18229;DHT22;9239;50.932;3.142;2023-12-20T00:23:09;6.50;99.90
18229;DHT22;9239;50.932;3.142;2023-12-20T00:25:36;6.50;99.90
18229;DHT22;9239;50.932;3.142;2023-12-20T00:28:03;6.40;99.90
18229;DHT22;9239;50.932;3.142;2023-12-20T00:30:30;6.40;99.90
18229;DHT22;9239;50.932;3.142;2023-12-20T00:32:58;6.30;99.90
18229;DHT22;9239;50.932;3.142;2023-12-20T00:35:26;6.30;99.90
18229;DHT22;9239;50.932;3.142;2023-12-20T00:37:54;6.30;99.90
18229;DHT22;9239;50.932;3.142;2023-12-20T00:40:21;6.30;99.90
18229;DHT22;9239;50.932;3.142;2023-12-20T00:42:48;6.40;99.90
18229;DHT22;9239;50.932;3.142;2023-12-20T00:45:15;6.40;99.90
18229;DHT22;9239;50.932;3.142;2023-12-20T00:47:42;6.40;99.90
18229;DHT22;9239;50.932;3.142;2023-12-20T00:50:10;6.40;99.90
18229;DHT22;9239;50.932;3.142;2023-12-20T00:52:37;6.40;99.90
18229;DHT22;9239;50.932;3.142;2023-12-20T00:55:05;6.40;99.90
18229;DHT22;9239;50.932;3.142;2023-12-20T00:57:32;6.50;99.90
18229;DHT22;9239;50.932;3.142;2023-12-20T00:59:59;6.50;99.90
18229;DHT22;9239;50.932;3.142;2023-12-20T01:02:26;6.60;99.90
18229;DHT22;9239;50.932;3.142;2023-12-20T01:04:53;6.60;99.90
18229;DHT22;9239;50.932;3.142;2023-12-20T01:07:21;6.60;99.90
18229;DHT22;9239;50.932;3.142;2023-12-20T01:09:48;6.60;99.90
18229;DHT22;9239;50.932;3.142;2023-12-20T01:12:15;6.60;99.90
18229;DHT22;9239;50.932;3.142;2023-12-20T01:14:42;6.50;99.90
18229;DHT22;9239;50.932;3.142;2023-12-20T01:17:09;6.50;99.90
18229;DHT22;9239;50.932;3.142;2023-12-20T01:19:36;6.40;99.90
18229;DHT22;9239;50.932;3.142;2023-12-20T01:22:03;6.40;99.90
18229;DHT22;9239;50.932;3.142;2023-12-20T01:24:32;6.30;99.90
18229;DHT22;9239;50.932;3.142;2023-12-20T01:26:59;6.30;99.90
18229;DHT22;9239;50.932;3.142;2023-12-20T01:29:25;6.30;99.90
18229;DHT22;9239;50.932;3.142;2023-12-20T01:31:52;6.30;99.90
18229;DHT22;9239;50.932;3.142;2023-12-20T01:34:19;6.10;99.90
18229;DHT22;9239;50.932;3.142;2023-12-20T01:36:46;6.10;99.90
18229;DHT22;9239;50.932;3.142;2023-12-20T01:39:13;6.00;99.90
18229;DHT22;9239;50.932;3.142;2023-12-20T01:41:42;6.00;99.90
18229;DHT22;9239;50.932;3.142;2023-12-20T01:44:09;5.90;99.90
18229;DHT22;9239;50.932;3.142;2023-12-20T01:46:36;6.00;99.90
18229;DHT22;9239;50.932;3.142;2023-12-20T01:49:03;5.90;99.90
18229;DHT22;9239;50.932;3.142;2023-12-20T01:51:30;5.90;99.90
18229;DHT22;9239;50.932;3.142;2023-12-20T01:53:57;5.80;99.90
18229;DHT22;9239;50.932;3.142;2023-12-20T01:56:26;5.80;99.90
18229;DHT22;9239;50.932;3.142;2023-12-20T01:58:56;5.80;99.90
18229;DHT22;9239;50.932;3.142;2023-12-20T02:01:23;5.70;99.90
18229;DHT22;9239;50.932;3.142;2023-12-20T02:03:51;5.80;99.90
18229;DHT22;9239;50.932;3.142;2023-12-20T02:06:19;5.70;99.90
18229;DHT22;9239;50.932;3.142;2023-12-20T02:08:49;5.80;99.90
18229;DHT22;9239;50.932;3.142;2023-12-20T02:11:16;5.80;99.90
18229;DHT22;9239;50.932;3.142;2023-12-20T02:13:43;5.80;99.90
18229;DHT22;9239;50.932;3.142;2023-12-20T02:16:12;5.70;99.90
18229;DHT22;9239;50.932;3.142;2023-12-20T02:18:39;5.80;99.90
18229;DHT22;9239;50.932;3.142;2023-12-20T02:21:06;5.80;99.90
18229;DHT22;9239;50.932;3.142;2023-12-20T02:23:34;5.70;99.90
18229;DHT22;9239;50.932;3.142;2023-12-20T02:26:02;5.70;99.90
18229;DHT22;9239;50.932;3.142;2023-12-20T02:28:30;5.70;99.90
18229;DHT22;9239;50.932;3.142;2023-12-20T02:30:57;5.70;99.90
18229;DHT22;9239;50.932;3.142;2023-12-20T02:33:24;5.60;99.90
18229;DHT22;9239;50.932;3.142;2023-12-20T02:35:51;5.60;99.90
18229;DHT22;9239;50.932;3.142;2023-12-20T02:38:18;5.60;99.90
18229;DHT22;9239;50.932;3.142;2023-12-20T02:40:46;5.60;99.90
18229;DHT22;9239;50.932;3.142;2023-12-20T02:43:13;5.60;99.90
18229;DHT22;9239;50.932;3.142;2023-12-20T02:45:40;5.50;99.90
18229;DHT22;9239;50.932;3.142;2023-12-20T02:48:07;5.50;99.90
18229;DHT22;9239;50.932;3.142;2023-12-20T02:50:34;5.40;99.90
18229;DHT22;9239;50.932;3.142;2023-12-20T02:53:01;5.40;99.90
18229;DHT22;9239;50.932;3.142;2023-12-20T02:55:28;5.40;99.90
18229;DHT22;9239;50.932;3.142;2023-12-20T02:57:57;5.40;99.90
18229;DHT22;9239;50.932;3.142;2023-12-20T03:00:24;5.30;99.90
18229;DHT22;9239;50.932;3.142;2023-12-20T03:02:51;5.30;99.90
18229;DHT22;9239;50.932;3.142;2023-12-20T03:05:18;5.30;99.90
18229;DHT22;9239;50.932;3.142;2023-12-20T03:07:46;5.30;99.90
18229;DHT22;9239;50.932;3.142;2023-12-20T03:10:13;5.30;99.90
18229;DHT22;9239;50.932;3.142;2023-12-20T03:12:40;5.30;99.90
18229;DHT22;9239;50.932;3.142;2023-12-20T03:15:09;5.40;99.90
18229;DHT22;9239;50.932;3.142;2023-12-20T03:17:37;5.30;99.90
18229;DHT22;9239;50.932;3.142;2023-12-20T03:20:05;5.30;99.90
18229;DHT22;9239;50.932;3.142;2023-12-20T03:22:32;5.30;99.90
18229;DHT22;9239;50.932;3.142;2023-12-20T03:24:59;5.30;99.90
18229;DHT22;9239;50.932;3.142;2023-12-20T03:27:26;5.30;99.90
18229;DHT22;9239;50.932;3.142;2023-12-20T03:29:53;5.30;99.90
18229;DHT22;9239;50.932;3.142;2023-12-20T03:32:21;5.30;99.90
18229;DHT22;9239;50.932;3.142;2023-12-20T03:34:48;5.40;99.90
18229;DHT22;9239;50.932;3.142;2023-12-20T03:37:15;5.40;99.90
18229;DHT22;9239;50.932;3.142;2023-12-20T03:39:42;5.30;99.90
18229;DHT22;9239;50.932;3.142;2023-12-20T03:42:09;5.30;99.90
18229;DHT22;9239;50.932;3.142;2023-12-20T03:44:38;5.30;99.90
18229;DHT22;9239;50.932;3.142;2023-12-20T03:47:05;5.30;99.90
18229;DHT22;9239;50.932;3.142;2023-12-20T03:49:33;5.30;99.90
18229;DHT22;9239;50.932;3.142;2023-12-20T03:52:03;5.40;99.90
18229;DHT22;9239;50.932;3.142;2023-12-20T03:54:30;5.40;99.90
18229;DHT22;9239;50.932;3.142;2023-12-20T03:56:57;5.40;99.90
18229;DHT22;9239;50.932;3.142;2023-12-20T03:59:24;5.50;99.90
18229;DHT22;9239;50.932;3.142;2023-12-20T04:01:51;5.50;99.90
18229;DHT22;9239;50.932;3.142;2023-12-20T04:04:18;5.50;99.90
18229;DHT22;9239;50.932;3.142;2023-12-20T04:06:46;5.50;99.90
18229;DHT22;9239;50.932;3.142;2023-12-20T04:09:13;5.50;99.90
18229;DHT22;9239;50.932;3.142;2023-12-20T04:11:41;5.50;99.90
18229;DHT22;9239;50.932;3.142;2023-12-20T04:14:08;5.50;99.90
18229;DHT22;9239;50.932;3.142;2023-12-20T04:16:35;5.50;99.90
18229;DHT22;9239;50.932;3.142;2023-12-20T04:19:02;5.50;99.90
18229;DHT22;9239;50.932;3.142;2023-12-20T04:21:30;5.40;99.90
18229;DHT22;9239;50.932;3.142;2023-12-20T04:23:58;5.50;99.90
18229;DHT22;9239;50.932;3.142;2023-12-20T04:26:25;5.50;99.90
18229;DHT22;9239;50.932;3.142;2023-12-20T04:28:52;5.50;99.90
18229;DHT22;9239;50.932;3.142;2023-12-20T04:31:19;5.50;99.90
18229;DHT22;9239;50.932;3.142;2023-12-20T04:33:46;5.50;99.90
18229;DHT22;9239;50.932;3.142;2023-12-20T04:36:13;5.40;99.90
18229;DHT22;9239;50.932;3.142;2023-12-20T04:38:40;5.40;99.90
18229;DHT22;9239;50.932;3.142;2023-12-20T04:41:08;5.40;99.90
18229;DHT22;9239;50.932;3.142;2023-12-20T04:43:35;5.40;99.90
18229;DHT22;9239;50.932;3.142;2023-12-20T04:46:03;5.40;99.90
18229;DHT22;9239;50.932;3.142;2023-12-20T04:48:30;5.40;99.90
18229;DHT22;9239;50.932;3.142;2023-12-20T04:50:57;5.40;99.90
18229;DHT22;9239;50.932;3.142;2023-12-20T04:53:24;5.40;99.90
18229;DHT22;9239;50.932;3.142;2023-12-20T04:55:51;5.30;99.90
18229;DHT22;9239;50.932;3.142;2023-12-20T04:58:19;5.30;99.90
18229;DHT22;9239;50.932;3.142;2023-12-20T05:00:46;5.30;99.90
18229;DHT22;9239;50.932;3.142;2023-12-20T05:03:13;5.30;99.90
18229;DHT22;9239;50.932;3.142;2023-12-20T05:05:40;5.30;99.90
18229;DHT22;9239;50.932;3.142;2023-12-20T05:08:07;5.30;99.90
18229;DHT22;9239;50.932;3.142;2023-12-20T05:10:34;5.30;99.90
18229;DHT22;9239;50.932;3.142;2023-12-20T05:13:02;5.30;99.90
18229;DHT22;9239;50.932;3.142;2023-12-20T05:15:29;5.30;99.90
18229;DHT22;9239;50.932;3.142;2023-12-20T05:17:56;5.20;99.90
18229;DHT22;9239;50.932;3.142;2023-12-20T05:20:23;5.30;99.90
18229;DHT22;9239;50.932;3.142;2023-12-20T05:22:50;5.30;99.90
18229;DHT22;9239;50.932;3.142;2023-12-20T05:25:17;5.30;99.90
18229;DHT22;9239;50.932;3.142;2023-12-20T05:27:44;5.40;99.90
18229;DHT22;9239;50.932;3.142;2023-12-20T05:30:12;5.40;99.90
18229;DHT22;9239;50.932;3.142;2023-12-20T05:32:40;5.50;99.90
18229;DHT22;9239;50.932;3.142;2023-12-20T05:35:08;5.60;99.90
18229;DHT22;9239;50.932;3.142;2023-12-20T05:37:35;5.70;99.90
18229;DHT22;9239;50.932;3.142;2023-12-20T05:40:01;5.70;99.90
18229;DHT22;9239;50.932;3.142;2023-12-20T05:42:29;5.70;99.90
18229;DHT22;9239;50.932;3.142;2023-12-20T05:44:56;5.60;99.90
18229;DHT22;9239;50.932;3.142;2023-12-20T05:47:23;5.70;99.90
18229;DHT22;9239;50.932;3.142;2023-12-20T05:49:52;5.60;99.90
18229;DHT22;9239;50.932;3.142;2023-12-20T05:52:19;5.60;99.90
18229;DHT22;9239;50.932;3.142;2023-12-20T05:54:46;5.60;99.90
18229;DHT22;9239;50.932;3.142;2023-12-20T05:57:13;5.60;99.90
18229;DHT22;9239;50.932;3.142;2023-12-20T05:59:40;5.60;99.90
18229;DHT22;9239;50.932;3.142;2023-12-20T06:02:07;5.60;99.90
18229;DHT22;9239;50.932;3.142;2023-12-20T06:04:34;5.60;99.90
18229;DHT22;9239;50.932;3.142;2023-12-20T06:07:02;5.60;99.90
18229;DHT22;9239;50.932;3.142;2023-12-20T06:09:29;5.60;99.90
18229;DHT22;9239;50.932;3.142;2023-12-20T06:11:56;5.60;99.90
18229;DHT22;9239;50.932;3.142;2023-12-20T06:14:23;5.70;99.90
18229;DHT22;9239;50.932;3.142;2023-12-20T06:16:50;5.60;99.90
18229;DHT22;9239;50.932;3.142;2023-12-20T06:19:17;5.60;99.90
18229;DHT22;9239;50.932;3.142;2023-12-20T06:21:44;5.60;99.90
18229;DHT22;9239;50.932;3.142;2023-12-20T06:24:13;5.60;99.90
18229;DHT22;9239;50.932;3.142;2023-12-20T06:26:40;5.60;99.90
18229;DHT22;9239;50.932;3.142;2023-12-20T06:29:07;5.60;99.90
18229;DHT22;9239;50.932;3.142;2023-12-20T06:31:33;5.60;99.90
18229;DHT22;9239;50.932;3.142;2023-12-20T06:34:01;5.60;99.90
18229;DHT22;9239;50.932;3.142;2023-12-20T06:36:28;5.60;99.90
18229;DHT22;9239;50.932;3.142;2023-12-20T06:38:56;5.60;99.90
18229;DHT22;9239;50.932;3.142;2023-12-20T06:41:24;5.60;99.90
18229;DHT22;9239;50.932;3.142;2023-12-20T06:43:51;5.60;99.90
18229;DHT22;9239;50.932;3.142;2023-12-20T06:46:18;5.60;99.90
18229;DHT22;9239;50.932;3.142;2023-12-20T06:48:45;5.60;99.90
18229;DHT22;9239;50.932;3.142;2023-12-20T06:51:13;5.60;99.90
18229;DHT22;9239;50.932;3.142;2023-12-20T06:53:40;5.60;99.90
18229;DHT22;9239;50.932;3.142;2023-12-20T06:56:07;5.60;99.90
18229;DHT22;9239;50.932;3.142;2023-12-20T06:58:37;5.60;99.90
18229;DHT22;9239;50.932;3.142;2023-12-20T07:01:04;5.60;99.90
18229;DHT22;9239;50.932;3.142;2023-12-20T07:03:31;5.60;99.90
18229;DHT22;9239;50.932;3.142;2023-12-20T07:05:58;5.50;99.90
18229;DHT22;9239;50.932;3.142;2023-12-20T07:08:25;5.50;99.90
18229;DHT22;9239;50.932;3.142;2023-12-20T07:10:52;5.50;99.90
18229;DHT22;9239;50.932;3.142;2023-12-20T07:13:19;5.40;99.90
18229;DHT22;9239;50.932;3.142;2023-12-20T07:15:47;5.50;99.90
18229;DHT22;9239;50.932;3.142;2023-12-20T07:18:14;5.50;99.90
18229;DHT22;9239;50.932;3.142;2023-12-20T07:20:41;5.50;99.90
18229;DHT22;9239;50.932;3.142;2023-12-20T07:23:08;5.50;99.90
18229;DHT22;9239;50.932;3.142;2023-12-20T07:25:35;5.50;99.90
18229;DHT22;9239;50.932;3.142;2023-12-20T07:28:02;5.50;99.90
18229;DHT22;9239;50.932;3.142;2023-12-20T07:30:30;5.50;99.90
18229;DHT22;9239;50.932;3.142;2023-12-20T07:32:58;5.50;99.90
18229;DHT22;9239;50.932;3.142;2023-12-20T07:35:26;5.50;99.90
18229;DHT22;9239;50.932;3.142;2023-12-20T07:37:53;5.50;99.90
18229;DHT22;9239;50.932;3.142;2023-12-20T07:40:20;5.50;99.90
18229;DHT22;9239;50.932;3.142;2023-12-20T07:42:47;5.60;99.90
18229;DHT22;9239;50.932;3.142;2023-12-20T07:45:14;5.60;99.90
18229;DHT22;9239;50.932;3.142;2023-12-20T07:47:41;5.60;99.90
18229;DHT22;9239;50.932;3.142;2023-12-20T07:50:10;5.60;99.90
18229;DHT22;9239;50.932;3.142;2023-12-20T07:52:37;5.60;99.90
18229;DHT22;9239;50.932;3.142;2023-12-20T07:55:04;5.60;99.90
18229;DHT22;9239;50.932;3.142;2023-12-20T07:57:31;5.70;99.90
18229;DHT22;9239;50.932;3.142;2023-12-20T07:59:59;5.70;99.90
18229;DHT22;9239;50.932;3.142;2023-12-20T08:02:25;5.70;99.90
18229;DHT22;9239;50.932;3.142;2023-12-20T08:04:52;5.70;99.90
18229;DHT22;9239;50.932;3.142;2023-12-20T08:07:21;5.60;99.90
18229;DHT22;9239;50.932;3.142;2023-12-20T08:09:48;5.60;99.90
18229;DHT22;9239;50.932;3.142;2023-12-20T08:12:15;5.70;99.90
18229;DHT22;9239;50.932;3.142;2023-12-20T08:14:42;5.80;99.90
18229;DHT22;9239;50.932;3.142;2023-12-20T08:17:10;5.90;99.90
18229;DHT22;9239;50.932;3.142;2023-12-20T08:19:38;5.90;99.90
18229;DHT22;9239;50.932;3.142;2023-12-20T08:22:05;5.90;99.90
18229;DHT22;9239;50.932;3.142;2023-12-20T08:24:33;6.00;99.90
18229;DHT22;9239;50.932;3.142;2023-12-20T08:27:01;6.00;99.90
18229;DHT22;9239;50.932;3.142;2023-12-20T08:29:28;6.00;99.90
18229;DHT22;9239;50.932;3.142;2023-12-20T08:31:55;6.10;99.90
18229;DHT22;9239;50.932;3.142;2023-12-20T08:34:23;6.20;99.90
18229;DHT22;9239;50.932;3.142;2023-12-20T08:36:50;6.20;99.90
18229;DHT22;9239;50.932;3.142;2023-12-20T08:39:17;6.20;99.90
18229;DHT22;9239;50.932;3.142;2023-12-20T08:41:45;6.30;99.90
18229;DHT22;9239;50.932;3.142;2023-12-20T08:44:12;6.40;99.90
18229;DHT22;9239;50.932;3.142;2023-12-20T08:46:40;6.50;99.90
18229;DHT22;9239;50.932;3.142;2023-12-20T08:49:06;6.60;99.90
18229;DHT22;9239;50.932;3.142;2023-12-20T08:51:34;6.60;99.90
18229;DHT22;9239;50.932;3.142;2023-12-20T08:54:01;6.70;99.90
18229;DHT22;9239;50.932;3.142;2023-12-20T08:56:33;6.70;99.90
18229;DHT22;9239;50.932;3.142;2023-12-20T08:59:02;6.80;99.90
18229;DHT22;9239;50.932;3.142;2023-12-20T09:01:29;6.80;99.90
18229;DHT22;9239;50.932;3.142;2023-12-20T09:03:56;6.80;99.90
18229;DHT22;9239;50.932;3.142;2023-12-20T09:06:23;6.90;99.90
18229;DHT22;9239;50.932;3.142;2023-12-20T09:08:51;6.80;99.90
18229;DHT22;9239;50.932;3.142;2023-12-20T09:11:18;6.80;99.90
18229;DHT22;9239;50.932;3.142;2023-12-20T09:13:45;6.80;99.90
18229;DHT22;9239;50.932;3.142;2023-12-20T09:16:13;6.80;99.90
18229;DHT22;9239;50.932;3.142;2023-12-20T09:18:41;6.90;99.90
18229;DHT22;9239;50.932;3.142;2023-12-20T09:21:08;6.90;99.90
18229;DHT22;9239;50.932;3.142;2023-12-20T09:23:35;7.00;99.90
18229;DHT22;9239;50.932;3.142;2023-12-20T09:26:03;7.10;99.90
18229;DHT22;9239;50.932;3.142;2023-12-20T09:28:30;7.30;99.90
18229;DHT22;9239;50.932;3.142;2023-12-20T09:31:03;7.30;99.90
18229;DHT22;9239;50.932;3.142;2023-12-20T09:33:31;7.40;99.90
18229;DHT22;9239;50.932;3.142;2023-12-20T09:35:58;7.40;99.90
18229;DHT22;9239;50.932;3.142;2023-12-20T09:38:25;7.50;99.90
18229;DHT22;9239;50.932;3.142;2023-12-20T09:40:52;7.50;99.90
18229;DHT22;9239;50.932;3.142;2023-12-20T09:43:24;7.60;99.90
18229;DHT22;9239;50.932;3.142;2023-12-20T09:45:53;7.70;99.90
18229;DHT22;9239;50.932;3.142;2023-12-20T09:48:20;7.80;99.90
18229;DHT22;9239;50.932;3.142;2023-12-20T09:50:49;7.80;99.90
18229;DHT22;9239;50.932;3.142;2023-12-20T09:53:16;7.90;99.90
18229;DHT22;9239;50.932;3.142;2023-12-20T09:55:44;8.00;99.90
18229;DHT22;9239;50.932;3.142;2023-12-20T09:58:11;8.10;99.90
18229;DHT22;9239;50.932;3.142;2023-12-20T10:00:38;8.20;99.90
18229;DHT22;9239;50.932;3.142;2023-12-20T10:03:06;8.20;99.90
18229;DHT22;9239;50.932;3.142;2023-12-20T10:05:34;8.30;99.90
18229;DHT22;9239;50.932;3.142;2023-12-20T10:08:02;8.30;99.90
18229;DHT22;9239;50.932;3.142;2023-12-20T10:10:30;8.50;99.90
18229;DHT22;9239;50.932;3.142;2023-12-20T10:13:04;8.60;99.90
18229;DHT22;9239;50.932;3.142;2023-12-20T10:15:32;8.70;99.90
18229;DHT22;9239;50.932;3.142;2023-12-20T10:17:59;8.80;99.90
18229;DHT22;9239;50.932;3.142;2023-12-20T10:20:27;8.80;99.90
18229;DHT22;9239;50.932;3.142;2023-12-20T10:22:55;8.80;99.90
18229;DHT22;9239;50.932;3.142;2023-12-20T10:25:24;8.80;99.90
18229;DHT22;9239;50.932;3.142;2023-12-20T10:28:09;8.80;99.90
18229;DHT22;9239;50.932;3.142;2023-12-20T10:30:36;8.90;99.90
18229;DHT22;9239;50.932;3.142;2023-12-20T10:33:05;8.90;99.90
18229;DHT22;9239;50.932;3.142;2023-12-20T10:35:38;9.00;99.90
18229;DHT22;9239;50.932;3.142;2023-12-20T10:38:06;9.00;99.90
18229;DHT22;9239;50.932;3.142;2023-12-20T10:40:36;9.10;99.90
18229;DHT22;9239;50.932;3.142;2023-12-20T10:43:04;9.10;99.90
18229;DHT22;9239;50.932;3.142;2023-12-20T10:45:31;9.10;99.90
18229;DHT22;9239;50.932;3.142;2023-12-20T10:47:58;9.10;99.90
18229;DHT22;9239;50.932;3.142;2023-12-20T10:50:27;9.00;99.90
18229;DHT22;9239;50.932;3.142;2023-12-20T10:52:55;9.10;99.90
18229;DHT22;9239;50.932;3.142;2023-12-20T10:55:22;9.10;99.90
18229;DHT22;9239;50.932;3.142;2023-12-20T10:57:51;9.10;99.90
18229;DHT22;9239;50.932;3.142;2023-12-20T11:00:19;9.20;99.90
18229;DHT22;9239;50.932;3.142;2023-12-20T11:02:49;9.20;99.90
18229;DHT22;9239;50.932;3.142;2023-12-20T11:05:25;9.10;99.90
18229;DHT22;9239;50.932;3.142;2023-12-20T11:08:00;9.10;99.90
18229;DHT22;9239;50.932;3.142;2023-12-20T11:10:31;9.20;99.90
18229;DHT22;9239;50.932;3.142;2023-12-20T11:13:07;9.20;99.90
18229;DHT22;9239;50.932;3.142;2023-12-20T11:15:36;9.20;99.90
18229;DHT22;9239;50.932;3.142;2023-12-20T11:18:04;9.10;99.90
18229;DHT22;9239;50.932;3.142;2023-12-20T11:20:36;9.20;99.90
18229;DHT22;9239;50.932;3.142;2023-12-20T11:23:04;9.40;99.90
18229;DHT22;9239;50.932;3.142;2023-12-20T11:25:46;9.40;99.90
18229;DHT22;9239;50.932;3.142;2023-12-20T11:28:14;9.40;99.90
18229;DHT22;9239;50.932;3.142;2023-12-20T11:30:47;9.40;99.90
18229;DHT22;9239;50.932;3.142;2023-12-20T11:33:14;9.30;99.90
18229;DHT22;9239;50.932;3.142;2023-12-20T11:35:42;9.40;99.90
18229;DHT22;9239;50.932;3.142;2023-12-20T11:38:09;9.40;99.90
18229;DHT22;9239;50.932;3.142;2023-12-20T11:40:37;9.40;99.90
18229;DHT22;9239;50.932;3.142;2023-12-20T11:43:04;9.50;99.90
18229;DHT22;9239;50.932;3.142;2023-12-20T11:45:33;9.50;99.90
18229;DHT22;9239;50.932;3.142;2023-12-20T11:48:02;9.60;99.90
18229;DHT22;9239;50.932;3.142;2023-12-20T11:50:29;9.70;99.90
18229;DHT22;9239;50.932;3.142;2023-12-20T11:52:56;9.70;99.90
18229;DHT22;9239;50.932;3.142;2023-12-20T11:55:24;9.90;99.90
18229;DHT22;9239;50.932;3.142;2023-12-20T11:57:51;9.90;99.90
18229;DHT22;9239;50.932;3.142;2023-12-20T12:00:18;9.80;99.90
18229;DHT22;9239;50.932;3.142;2023-12-20T12:02:57;9.80;99.90
18229;DHT22;9239;50.932;3.142;2023-12-20T12:05:24;9.80;99.90
18229;DHT22;9239;50.932;3.142;2023-12-20T12:07:51;9.80;99.90
18229;DHT22;9239;50.932;3.142;2023-12-20T12:10:18;9.80;99.90
18229;DHT22;9239;50.932;3.142;2023-12-20T12:12:45;9.80;99.90
18229;DHT22;9239;50.932;3.142;2023-12-20T12:15:12;9.80;99.90
18229;DHT22;9239;50.932;3.142;2023-12-20T12:17:39;9.70;99.90
18229;DHT22;9239;50.932;3.142;2023-12-20T12:20:08;9.70;99.90
18229;DHT22;9239;50.932;3.142;2023-12-20T12:22:36;9.70;99.90
18229;DHT22;9239;50.932;3.142;2023-12-20T12:25:12;9.70;99.90
18229;DHT22;9239;50.932;3.142;2023-12-20T12:27:40;9.60;99.90
18229;DHT22;9239;50.932;3.142;2023-12-20T12:30:09;9.60;99.90
18229;DHT22;9239;50.932;3.142;2023-12-20T12:32:38;9.50;99.90
18229;DHT22;9239;50.932;3.142;2023-12-20T12:35:08;9.50;99.90
18229;DHT22;9239;50.932;3.142;2023-12-20T12:37:37;9.50;99.90
18229;DHT22;9239;50.932;3.142;2023-12-20T12:40:06;9.50;99.90
18229;DHT22;9239;50.932;3.142;2023-12-20T12:42:33;9.50;99.90
18229;DHT22;9239;50.932;3.142;2023-12-20T12:44:59;9.60;99.90
18229;DHT22;9239;50.932;3.142;2023-12-20T12:47:26;9.70;99.90
18229;DHT22;9239;50.932;3.142;2023-12-20T12:49:53;9.80;99.90
18229;DHT22;9239;50.932;3.142;2023-12-20T12:52:22;9.90;99.90
18229;DHT22;9239;50.932;3.142;2023-12-20T12:54:49;10.00;99.90
18229;DHT22;9239;50.932;3.142;2023-12-20T12:57:16;10.20;99.90
18229;DHT22;9239;50.932;3.142;2023-12-20T12:59:43;10.20;99.90
18229;DHT22;9239;50.932;3.142;2023-12-20T13:02:12;10.30;99.90
18229;DHT22;9239;50.932;3.142;2023-12-20T13:04:39;10.30;99.90
18229;DHT22;9239;50.932;3.142;2023-12-20T13:07:06;10.30;99.90
18229;DHT22;9239;50.932;3.142;2023-12-20T13:09:37;10.30;99.90
18229;DHT22;9239;50.932;3.142;2023-12-20T13:12:05;10.30;99.90
18229;DHT22;9239;50.932;3.142;2023-12-20T13:14:34;10.30;99.90
18229;DHT22;9239;50.932;3.142;2023-12-20T13:17:02;10.40;99.90
18229;DHT22;9239;50.932;3.142;2023-12-20T13:19:30;10.30;99.90
18229;DHT22;9239;50.932;3.142;2023-12-20T13:21:57;10.40;99.90
18229;DHT22;9239;50.932;3.142;2023-12-20T13:24:24;10.30;99.90
18229;DHT22;9239;50.932;3.142;2023-12-20T13:26:53;10.30;99.90
18229;DHT22;9239;50.932;3.142;2023-12-20T13:29:19;10.30;99.90
18229;DHT22;9239;50.932;3.142;2023-12-20T13:31:46;10.30;99.90
18229;DHT22;9239;50.932;3.142;2023-12-20T13:34:13;10.20;99.90
18229;DHT22;9239;50.932;3.142;2023-12-20T13:36:43;10.20;99.90
18229;DHT22;9239;50.932;3.142;2023-12-20T13:39:11;10.20;99.90
18229;DHT22;9239;50.932;3.142;2023-12-20T13:41:38;10.20;99.90
18229;DHT22;9239;50.932;3.142;2023-12-20T13:44:06;10.20;99.90
18229;DHT22;9239;50.932;3.142;2023-12-20T13:46:33;10.10;99.90
18229;DHT22;9239;50.932;3.142;2023-12-20T13:49:00;10.10;99.90
18229;DHT22;9239;50.932;3.142;2023-12-20T13:51:27;10.10;99.90
18229;DHT22;9239;50.932;3.142;2023-12-20T13:53:55;10.10;99.90
18229;DHT22;9239;50.932;3.142;2023-12-20T13:56:22;10.10;99.90
18229;DHT22;9239;50.932;3.142;2023-12-20T13:58:49;10.10;99.90
18229;DHT22;9239;50.932;3.142;2023-12-20T14:01:18;10.10;99.90
18229;DHT22;9239;50.932;3.142;2023-12-20T14:03:45;10.10;99.90
18229;DHT22;9239;50.932;3.142;2023-12-20T14:06:12;10.20;99.90
18229;DHT22;9239;50.932;3.142;2023-12-20T14:08:41;10.10;99.90
18229;DHT22;9239;50.932;3.142;2023-12-20T14:11:08;10.10;99.90
18229;DHT22;9239;50.932;3.142;2023-12-20T14:13:35;10.10;99.90
18229;DHT22;9239;50.932;3.142;2023-12-20T14:16:02;10.10;99.90
18229;DHT22;9239;50.932;3.142;2023-12-20T14:18:31;10.20;99.90
18229;DHT22;9239;50.932;3.142;2023-12-20T14:20:58;10.20;99.90
18229;DHT22;9239;50.932;3.142;2023-12-20T14:23:24;10.20;99.90
18229;DHT22;9239;50.932;3.142;2023-12-20T14:25:51;10.20;99.90
18229;DHT22;9239;50.932;3.142;2023-12-20T14:28:19;10.20;99.90
18229;DHT22;9239;50.932;3.142;2023-12-20T14:30:46;10.20;99.90
18229;DHT22;9239;50.932;3.142;2023-12-20T14:33:14;10.20;99.90
18229;DHT22;9239;50.932;3.142;2023-12-20T14:35:42;10.20;99.90
18229;DHT22;9239;50.932;3.142;2023-12-20T14:38:10;10.20;99.90
18229;DHT22;9239;50.932;3.142;2023-12-20T14:40:38;10.10;99.90
18229;DHT22;9239;50.932;3.142;2023-12-20T14:43:06;10.10;99.90
18229;DHT22;9239;50.932;3.142;2023-12-20T14:45:33;10.10;99.90
18229;DHT22;9239;50.932;3.142;2023-12-20T14:48:00;10.00;99.90
18229;DHT22;9239;50.932;3.142;2023-12-20T14:50:27;10.00;99.90
18229;DHT22;9239;50.932;3.142;2023-12-20T14:52:55;10.00;99.90
18229;DHT22;9239;50.932;3.142;2023-12-20T14:55:23;9.90;99.90
18229;DHT22;9239;50.932;3.142;2023-12-20T14:57:52;9.90;99.90
18229;DHT22;9239;50.932;3.142;2023-12-20T15:00:19;9.90;99.90
18229;DHT22;9239;50.932;3.142;2023-12-20T15:02:46;9.90;99.90
18229;DHT22;9239;50.932;3.142;2023-12-20T15:05:13;9.80;99.90
18229;DHT22;9239;50.932;3.142;2023-12-20T15:07:41;9.80;99.90
18229;DHT22;9239;50.932;3.142;2023-12-20T15:10:09;9.80;99.90
18229;DHT22;9239;50.932;3.142;2023-12-20T15:12:36;9.80;99.90
18229;DHT22;9239;50.932;3.142;2023-12-20T15:15:04;9.80;99.90
18229;DHT22;9239;50.932;3.142;2023-12-20T15:17:31;9.80;99.90
18229;DHT22;9239;50.932;3.142;2023-12-20T15:19:58;9.80;99.90
18229;DHT22;9239;50.932;3.142;2023-12-20T15:22:25;9.80;99.90
18229;DHT22;9239;50.932;3.142;2023-12-20T15:24:52;9.80;99.90
18229;DHT22;9239;50.932;3.142;2023-12-20T15:27:22;9.80;99.90
18229;DHT22;9239;50.932;3.142;2023-12-20T15:29:49;9.80;99.90
18229;DHT22;9239;50.932;3.142;2023-12-20T15:32:17;9.80;99.90
18229;DHT22;9239;50.932;3.142;2023-12-20T15:34:45;9.80;99.90
18229;DHT22;9239;50.932;3.142;2023-12-20T15:37:12;9.70;99.90
18229;DHT22;9239;50.932;3.142;2023-12-20T15:39:41;9.70;99.90
18229;DHT22;9239;50.932;3.142;2023-12-20T15:42:09;9.70;99.90
18229;DHT22;9239;50.932;3.142;2023-12-20T15:44:37;9.70;99.90
18229;DHT22;9239;50.932;3.142;2023-12-20T15:47:04;9.70;99.90
18229;DHT22;9239;50.932;3.142;2023-12-20T15:49:31;9.70;99.90
18229;DHT22;9239;50.932;3.142;2023-12-20T15:51:58;9.70;99.90
18229;DHT22;9239;50.932;3.142;2023-12-20T15:54:25;9.70;99.90
18229;DHT22;9239;50.932;3.142;2023-12-20T15:56:52;9.70;99.90
18229;DHT22;9239;50.932;3.142;2023-12-20T15:59:18;9.70;99.90
18229;DHT22;9239;50.932;3.142;2023-12-20T16:01:47;9.70;99.90